Portada
METAR-TAF:

METAR-TAF

Aeroports :

Ahmedabad, Índia

latitud: 23-04N, longitud: 072-38E, altitud: 55 m

Observació

L'informe es va fer fa 17 minuts, a les 12:00 UTC
Vent 3 kt del Nord
Temperatura 39°C
Humitat 13%
Pressió 1008 hPa
Visibilitat: 6000 m

METAR: VAAH 301200Z 36003KT 6000 NSC 39/06 Q1008 BECMG 5000 FU

Hora: 17:47 (12:17 UTC)

Pronòstic

L'informe es va fer fa 4 hores i 17 minuts, a les 08:00 UTC
Pronòstic vàlid del 30 a les 09 UTC al 30 a les 18 UTC
Vent 3 kt del Oest/Nord-Oest
Visibilitat: 6000 m
Evolucionant progressivament
l' 30 a les 13 UTC al 30 a les 15 UTC
Vent 8 kt del Nord/Nord-Oest
Visibilitat: 4000 m
fum

TAF: VAAH 300800Z 3009/3018 29003KT 6000 NSC BECMG 3013/3015 34008KT 4000 FU

Observacions i pronòstics meteorològics de més de 4000 aeroports (METAR i TAF).

Les estacions disponibles són els punts grocs i vermells al mapa.

Posi el ratolí al punt desitjat per veure el nom de l'estació.

Feu clic per veure les observacions i els pronòstics meteorològics.

Per canviar el mapa: feu clic els botons verds amb una creu de color negre per apropar; al botó verd amb un guió per allunyar la imatge; o en les fletxes verdes per a mapes adjacents.


METAR-TAF: